sensor_id;sensor_type;location;lat;lon;timestamp;pressure;altitude;pressure_sealevel;temperature;humidity
23318;BME280;11831;55.918;37.746;2022-08-30T00:01:04;98629.31;;;21.87;0.00
23318;BME280;11831;55.918;37.746;2022-08-30T00:03:32;98628.66;;;21.98;0.00
23318;BME280;11831;55.918;37.746;2022-08-30T00:05:59;98628.84;;;21.85;0.00
23318;BME280;11831;55.918;37.746;2022-08-30T00:08:25;98617.31;;;21.88;0.00
23318;BME280;11831;55.918;37.746;2022-08-30T00:10:52;98615.03;;;22.16;0.00
23318;BME280;11831;55.918;37.746;2022-08-30T00:13:18;98613.78;;;22.13;0.00
23318;BME280;11831;55.918;37.746;2022-08-30T00:15:45;98624.84;;;21.82;0.00
23318;BME280;11831;55.918;37.746;2022-08-30T00:18:11;98632.69;;;21.75;0.00
23318;BME280;11831;55.918;37.746;2022-08-30T00:20:37;98627.06;;;21.89;0.00
23318;BME280;11831;55.918;37.746;2022-08-30T00:23:04;98619.19;;;21.96;0.00
23318;BME280;11831;55.918;37.746;2022-08-30T00:25:30;98621.44;;;22.02;0.00
23318;BME280;11831;55.918;37.746;2022-08-30T00:27:56;98612.00;;;22.17;0.00
23318;BME280;11831;55.918;37.746;2022-08-30T00:30:23;98612.66;;;21.71;0.00
23318;BME280;11831;55.918;37.746;2022-08-30T00:32:49;98616.03;;;21.85;0.00
23318;BME280;11831;55.918;37.746;2022-08-30T00:35:15;98620.50;;;21.73;0.00
23318;BME280;11831;55.918;37.746;2022-08-30T00:37:45;98613.63;;;21.84;0.00
23318;BME280;11831;55.918;37.746;2022-08-30T00:40:12;98615.41;;;21.54;0.00
23318;BME280;11831;55.918;37.746;2022-08-30T00:42:41;98617.62;;;22.04;0.00
23318;BME280;11831;55.918;37.746;2022-08-30T00:45:12;98610.25;;;21.95;0.00
23318;BME280;11831;55.918;37.746;2022-08-30T00:47:39;98608.34;;;22.05;0.00
23318;BME280;11831;55.918;37.746;2022-08-30T00:50:06;98613.59;;;22.18;0.00
23318;BME280;11831;55.918;37.746;2022-08-30T00:52:33;98613.97;;;21.74;0.00
23318;BME280;11831;55.918;37.746;2022-08-30T00:55:00;98609.16;;;21.62;0.00
23318;BME280;11831;55.918;37.746;2022-08-30T00:57:29;98608.34;;;21.53;0.00
23318;BME280;11831;55.918;37.746;2022-08-30T00:59:56;98612.53;;;21.50;0.00
23318;BME280;11831;55.918;37.746;2022-08-30T01:02:23;98604.66;;;21.83;0.00
23318;BME280;11831;55.918;37.746;2022-08-30T01:04:51;98611.25;;;21.74;0.00
23318;BME280;11831;55.918;37.746;2022-08-30T01:07:17;98622.28;;;21.51;0.00
23318;BME280;11831;55.918;37.746;2022-08-30T01:09:44;98615.69;;;21.35;0.00
23318;BME280;11831;55.918;37.746;2022-08-30T01:12:10;98613.94;;;21.30;0.00
23318;BME280;11831;55.918;37.746;2022-08-30T01:14:36;98603.25;;;21.51;0.00
23318;BME280;11831;55.918;37.746;2022-08-30T01:17:02;98601.16;;;21.48;0.00
23318;BME280;11831;55.918;37.746;2022-08-30T01:21:58;98596.19;;;21.42;0.00
23318;BME280;11831;55.918;37.746;2022-08-30T01:24:26;98606.44;;;21.62;0.00
23318;BME280;11831;55.918;37.746;2022-08-30T01:26:53;98601.00;;;21.53;0.00
23318;BME280;11831;55.918;37.746;2022-08-30T01:29:20;98601.13;;;21.39;0.00
23318;BME280;11831;55.918;37.746;2022-08-30T01:31:47;98597.47;;;21.35;0.00
23318;BME280;11831;55.918;37.746;2022-08-30T01:34:14;98607.84;;;21.33;0.00
23318;BME280;11831;55.918;37.746;2022-08-30T01:36:41;98599.22;;;21.40;0.00
23318;BME280;11831;55.918;37.746;2022-08-30T01:39:09;98614.72;;;21.31;0.00
23318;BME280;11831;55.918;37.746;2022-08-30T01:41:36;98608.47;;;21.13;0.00
23318;BME280;11831;55.918;37.746;2022-08-30T01:44:04;98594.88;;;21.13;0.00
23318;BME280;11831;55.918;37.746;2022-08-30T01:46:32;98598.37;;;21.22;0.00
23318;BME280;11831;55.918;37.746;2022-08-30T01:49:03;98590.03;;;21.10;0.00
23318;BME280;11831;55.918;37.746;2022-08-30T01:51:30;98593.31;;;21.38;0.00
23318;BME280;11831;55.918;37.746;2022-08-30T01:53:56;98596.63;;;21.18;0.00
23318;BME280;11831;55.918;37.746;2022-08-30T01:56:23;98595.06;;;21.34;0.00
23318;BME280;11831;55.918;37.746;2022-08-30T01:58:50;98597.13;;;21.28;0.00
23318;BME280;11831;55.918;37.746;2022-08-30T02:01:17;98596.81;;;21.30;0.00
23318;BME280;11831;55.918;37.746;2022-08-30T02:03:44;98605.94;;;21.25;0.00
23318;BME280;11831;55.918;37.746;2022-08-30T02:06:12;98604.84;;;21.52;0.00
23318;BME280;11831;55.918;37.746;2022-08-30T02:08:39;98608.78;;;21.20;0.00
23318;BME280;11831;55.918;37.746;2022-08-30T02:11:06;98610.38;;;21.21;0.00
23318;BME280;11831;55.918;37.746;2022-08-30T02:13:32;98611.44;;;21.03;0.00
23318;BME280;11831;55.918;37.746;2022-08-30T02:15:58;98608.19;;;21.41;0.00
23318;BME280;11831;55.918;37.746;2022-08-30T02:18:25;98611.59;;;20.98;0.00
23318;BME280;11831;55.918;37.746;2022-08-30T02:20:51;98605.47;;;21.23;0.00
23318;BME280;11831;55.918;37.746;2022-08-30T02:23:17;98613.09;;;21.21;0.00
23318;BME280;11831;55.918;37.746;2022-08-30T02:25:43;98621.34;;;20.99;0.00
23318;BME280;11831;55.918;37.746;2022-08-30T02:28:09;98615.81;;;21.13;0.00
23318;BME280;11831;55.918;37.746;2022-08-30T02:30:36;98612.72;;;20.97;0.00
23318;BME280;11831;55.918;37.746;2022-08-30T02:33:03;98617.84;;;20.98;0.00
23318;BME280;11831;55.918;37.746;2022-08-30T02:35:29;98622.72;;;20.79;0.00
23318;BME280;11831;55.918;37.746;2022-08-30T02:37:55;98624.50;;;21.41;0.00
23318;BME280;11831;55.918;37.746;2022-08-30T02:40:21;98612.28;;;21.21;0.00
23318;BME280;11831;55.918;37.746;2022-08-30T02:42:47;98611.16;;;21.13;0.00
23318;BME280;11831;55.918;37.746;2022-08-30T02:45:14;98615.50;;;21.14;0.00
23318;BME280;11831;55.918;37.746;2022-08-30T02:47:41;98622.66;;;21.10;0.00
23318;BME280;11831;55.918;37.746;2022-08-30T02:50:07;98611.94;;;21.05;0.00
23318;BME280;11831;55.918;37.746;2022-08-30T02:52:37;98613.84;;;20.96;0.00
23318;BME280;11831;55.918;37.746;2022-08-30T02:55:04;98631.88;;;20.83;0.00
23318;BME280;11831;55.918;37.746;2022-08-30T02:57:31;98626.25;;;20.80;0.00
23318;BME280;11831;55.918;37.746;2022-08-30T02:59:57;98623.72;;;20.83;0.00
23318;BME280;11831;55.918;37.746;2022-08-30T03:02:23;98633.25;;;20.72;0.00
23318;BME280;11831;55.918;37.746;2022-08-30T03:04:50;98625.81;;;20.95;0.00
23318;BME280;11831;55.918;37.746;2022-08-30T03:07:16;98635.41;;;21.01;0.00
23318;BME280;11831;55.918;37.746;2022-08-30T03:09:42;98627.28;;;21.01;0.00
23318;BME280;11831;55.918;37.746;2022-08-30T03:12:09;98628.13;;;20.70;0.00
23318;BME280;11831;55.918;37.746;2022-08-30T03:14:35;98628.72;;;20.59;0.00
23318;BME280;11831;55.918;37.746;2022-08-30T03:17:03;98634.28;;;20.93;0.00
23318;BME280;11831;55.918;37.746;2022-08-30T03:19:29;98637.72;;;20.76;0.00
23318;BME280;11831;55.918;37.746;2022-08-30T03:21:55;98628.41;;;20.60;0.00
23318;BME280;11831;55.918;37.746;2022-08-30T03:24:21;98630.47;;;21.12;0.00
23318;BME280;11831;55.918;37.746;2022-08-30T03:26:47;98626.44;;;20.83;0.00
23318;BME280;11831;55.918;37.746;2022-08-30T03:29:14;98634.59;;;20.83;0.00
23318;BME280;11831;55.918;37.746;2022-08-30T03:31:41;98631.25;;;20.95;0.00
23318;BME280;11831;55.918;37.746;2022-08-30T03:34:07;98633.97;;;20.95;0.00
23318;BME280;11831;55.918;37.746;2022-08-30T03:36:36;98633.66;;;20.96;0.00
23318;BME280;11831;55.918;37.746;2022-08-30T03:39:06;98645.88;;;20.76;0.00
23318;BME280;11831;55.918;37.746;2022-08-30T03:41:33;98634.41;;;21.28;0.00
23318;BME280;11831;55.918;37.746;2022-08-30T03:43:59;98628.87;;;21.02;0.00
23318;BME280;11831;55.918;37.746;2022-08-30T03:46:25;98634.47;;;20.97;0.00
23318;BME280;11831;55.918;37.746;2022-08-30T03:48:52;98640.91;;;21.18;0.00
23318;BME280;11831;55.918;37.746;2022-08-30T03:51:21;98640.00;;;21.40;0.00
23318;BME280;11831;55.918;37.746;2022-08-30T03:53:47;98639.88;;;20.97;0.00
23318;BME280;11831;55.918;37.746;2022-08-30T03:56:13;98650.59;;;21.02;0.00
23318;BME280;11831;55.918;37.746;2022-08-30T03:58:39;98637.03;;;21.02;0.00
23318;BME280;11831;55.918;37.746;2022-08-30T04:01:06;98637.13;;;21.28;0.00
23318;BME280;11831;55.918;37.746;2022-08-30T04:03:32;98635.53;;;21.70;0.00
23318;BME280;11831;55.918;37.746;2022-08-30T04:05:58;98642.56;;;21.36;0.00
23318;BME280;11831;55.918;37.746;2022-08-30T04:08:26;98639.38;;;21.60;0.00
23318;BME280;11831;55.918;37.746;2022-08-30T04:10:52;98628.19;;;21.45;0.00
23318;BME280;11831;55.918;37.746;2022-08-30T04:13:20;98640.81;;;21.41;0.00
23318;BME280;11831;55.918;37.746;2022-08-30T04:15:47;98640.84;;;21.49;0.00
23318;BME280;11831;55.918;37.746;2022-08-30T04:18:13;98639.38;;;21.34;0.00
23318;BME280;11831;55.918;37.746;2022-08-30T04:20:39;98644.87;;;21.12;0.00
23318;BME280;11831;55.918;37.746;2022-08-30T04:23:06;98651.25;;;21.07;0.00
23318;BME280;11831;55.918;37.746;2022-08-30T04:25:33;98646.72;;;21.43;0.00
23318;BME280;11831;55.918;37.746;2022-08-30T04:27:59;98646.72;;;21.43;0.00
23318;BME280;11831;55.918;37.746;2022-08-30T04:30:25;98645.09;;;21.24;0.00
23318;BME280;11831;55.918;37.746;2022-08-30T04:32:51;98652.66;;;21.45;0.00
23318;BME280;11831;55.918;37.746;2022-08-30T04:35:18;98654.75;;;21.65;0.00
23318;BME280;11831;55.918;37.746;2022-08-30T04:37:44;98651.22;;;21.47;0.00
23318;BME280;11831;55.918;37.746;2022-08-30T04:40:10;98642.41;;;21.42;0.00
23318;BME280;11831;55.918;37.746;2022-08-30T04:42:37;98649.47;;;21.68;0.00
23318;BME280;11831;55.918;37.746;2022-08-30T04:45:04;98640.19;;;21.78;0.00
23318;BME280;11831;55.918;37.746;2022-08-30T04:47:31;98641.28;;;22.03;0.00
23318;BME280;11831;55.918;37.746;2022-08-30T04:49:57;98632.00;;;21.95;0.00
23318;BME280;11831;55.918;37.746;2022-08-30T04:52:23;98638.28;;;22.05;0.00
23318;BME280;11831;55.918;37.746;2022-08-30T04:54:56;98642.44;;;21.85;0.00
23318;BME280;11831;55.918;37.746;2022-08-30T04:57:22;98642.56;;;21.97;0.00
23318;BME280;11831;55.918;37.746;2022-08-30T04:59:49;98634.72;;;22.21;0.00
23318;BME280;11831;55.918;37.746;2022-08-30T05:02:15;98629.72;;;22.32;0.00
23318;BME280;11831;55.918;37.746;2022-08-30T05:04:41;98644.16;;;23.68;0.00
23318;BME280;11831;55.918;37.746;2022-08-30T05:07:29;98628.13;;;22.78;0.00
23318;BME280;11831;55.918;37.746;2022-08-30T05:09:56;98631.69;;;24.00;0.00
23318;BME280;11831;55.918;37.746;2022-08-30T05:12:22;98623.66;;;23.11;0.00
23318;BME280;11831;55.918;37.746;2022-08-30T05:14:49;98615.44;;;23.82;0.00
23318;BME280;11831;55.918;37.746;2022-08-30T05:17:15;98625.84;;;23.89;0.00
23318;BME280;11831;55.918;37.746;2022-08-30T05:19:41;98625.69;;;24.39;0.00
23318;BME280;11831;55.918;37.746;2022-08-30T05:22:07;98623.31;;;24.17;0.00
23318;BME280;11831;55.918;37.746;2022-08-30T05:24:34;98620.38;;;24.80;0.00
23318;BME280;11831;55.918;37.746;2022-08-30T05:27:01;98625.34;;;24.41;0.00
23318;BME280;11831;55.918;37.746;2022-08-30T05:29:29;98626.88;;;23.34;0.00
23318;BME280;11831;55.918;37.746;2022-08-30T05:31:55;98628.34;;;23.61;0.00
23318;BME280;11831;55.918;37.746;2022-08-30T05:34:21;98626.59;;;24.43;0.00
23318;BME280;11831;55.918;37.746;2022-08-30T05:36:47;98619.66;;;24.13;0.00
23318;BME280;11831;55.918;37.746;2022-08-30T05:39:13;98627.72;;;24.09;0.00
23318;BME280;11831;55.918;37.746;2022-08-30T05:41:40;98615.72;;;24.80;0.00
23318;BME280;11831;55.918;37.746;2022-08-30T05:44:07;98621.87;;;25.01;0.00
23318;BME280;11831;55.918;37.746;2022-08-30T05:46:34;98622.19;;;24.51;0.00
23318;BME280;11831;55.918;37.746;2022-08-30T05:49:02;98629.78;;;24.12;0.00
23318;BME280;11831;55.918;37.746;2022-08-30T05:51:29;98620.25;;;24.64;0.00
23318;BME280;11831;55.918;37.746;2022-08-30T05:53:57;98623.63;;;24.36;0.00
23318;BME280;11831;55.918;37.746;2022-08-30T05:56:25;98623.66;;;24.73;0.00
23318;BME280;11831;55.918;37.746;2022-08-30T05:58:53;98636.66;;;24.64;0.00
23318;BME280;11831;55.918;37.746;2022-08-30T06:03:45;98630.47;;;24.42;0.00
23318;BME280;11831;55.918;37.746;2022-08-30T06:06:11;98638.88;;;24.37;0.00
23318;BME280;11831;55.918;37.746;2022-08-30T06:08:37;98633.38;;;25.19;0.00
23318;BME280;11831;55.918;37.746;2022-08-30T06:11:03;98638.66;;;24.42;0.00
23318;BME280;11831;55.918;37.746;2022-08-30T06:13:29;98638.94;;;24.62;0.00
23318;BME280;11831;55.918;37.746;2022-08-30T06:15:57;98628.47;;;24.88;0.00
23318;BME280;11831;55.918;37.746;2022-08-30T06:18:23;98635.09;;;25.12;0.00
23318;BME280;11831;55.918;37.746;2022-08-30T06:20:50;98636.75;;;24.80;0.00
23318;BME280;11831;55.918;37.746;2022-08-30T06:23:17;98630.09;;;25.14;0.00
23318;BME280;11831;55.918;37.746;2022-08-30T06:25:43;98637.56;;;25.29;0.00
23318;BME280;11831;55.918;37.746;2022-08-30T06:28:10;98640.31;;;24.80;0.00
23318;BME280;11831;55.918;37.746;2022-08-30T06:30:38;98635.19;;;25.27;0.00
23318;BME280;11831;55.918;37.746;2022-08-30T06:33:05;98644.66;;;24.81;0.00
23318;BME280;11831;55.918;37.746;2022-08-30T06:35:31;98631.88;;;24.97;0.00
23318;BME280;11831;55.918;37.746;2022-08-30T06:37:58;98632.31;;;25.36;0.00
23318;BME280;11831;55.918;37.746;2022-08-30T06:40:24;98621.72;;;25.87;0.00
23318;BME280;11831;55.918;37.746;2022-08-30T06:42:50;98635.41;;;26.15;0.00
23318;BME280;11831;55.918;37.746;2022-08-30T06:45:17;98631.59;;;25.76;0.00
23318;BME280;11831;55.918;37.746;2022-08-30T06:47:43;98633.56;;;25.51;0.00
23318;BME280;11831;55.918;37.746;2022-08-30T06:50:10;98627.34;;;26.06;0.00
23318;BME280;11831;55.918;37.746;2022-08-30T06:52:37;98635.28;;;25.43;0.00
23318;BME280;11831;55.918;37.746;2022-08-30T06:55:03;98630.28;;;25.85;0.00
23318;BME280;11831;55.918;37.746;2022-08-30T06:57:29;98628.63;;;25.96;0.00
23318;BME280;11831;55.918;37.746;2022-08-30T06:59:56;98629.94;;;26.74;0.00
23318;BME280;11831;55.918;37.746;2022-08-30T07:02:23;98624.28;;;26.23;0.00
23318;BME280;11831;55.918;37.746;2022-08-30T07:04:50;98624.88;;;26.45;0.00
23318;BME280;11831;55.918;37.746;2022-08-30T07:07:16;98619.22;;;26.69;0.00
23318;BME280;11831;55.918;37.746;2022-08-30T07:09:42;98625.12;;;26.87;0.00
23318;BME280;11831;55.918;37.746;2022-08-30T07:12:10;98619.81;;;26.62;0.00
23318;BME280;11831;55.918;37.746;2022-08-30T07:14:36;98616.75;;;26.96;0.00
23318;BME280;11831;55.918;37.746;2022-08-30T07:17:03;98621.94;;;26.85;0.00
23318;BME280;11831;55.918;37.746;2022-08-30T07:19:49;98624.53;;;27.44;0.00
23318;BME280;11831;55.918;37.746;2022-08-30T07:22:15;98630.34;;;27.59;0.00
23318;BME280;11831;55.918;37.746;2022-08-30T07:24:41;98627.19;;;27.76;0.00
23318;BME280;11831;55.918;37.746;2022-08-30T07:27:08;98631.22;;;27.28;0.00
23318;BME280;11831;55.918;37.746;2022-08-30T07:29:34;98617.88;;;27.10;0.00
23318;BME280;11831;55.918;37.746;2022-08-30T07:32:00;98621.03;;;27.28;0.00
23318;BME280;11831;55.918;37.746;2022-08-30T07:34:27;98619.38;;;27.78;0.00
23318;BME280;11831;55.918;37.746;2022-08-30T07:36:53;98625.41;;;26.82;0.00
23318;BME280;11831;55.918;37.746;2022-08-30T07:39:19;98627.06;;;26.86;0.00
23318;BME280;11831;55.918;37.746;2022-08-30T07:41:46;98624.97;;;26.80;0.00
23318;BME280;11831;55.918;37.746;2022-08-30T07:44:13;98628.06;;;26.78;0.00
23318;BME280;11831;55.918;37.746;2022-08-30T07:46:40;98612.00;;;27.28;0.00
23318;BME280;11831;55.918;37.746;2022-08-30T07:49:06;98620.63;;;27.45;0.00
23318;BME280;11831;55.918;37.746;2022-08-30T07:51:32;98630.63;;;26.87;0.00
23318;BME280;11831;55.918;37.746;2022-08-30T07:53:58;98633.59;;;27.64;0.00
23318;BME280;11831;55.918;37.746;2022-08-30T07:56:25;98629.72;;;27.65;0.00
23318;BME280;11831;55.918;37.746;2022-08-30T07:58:51;98629.78;;;27.88;0.00
23318;BME280;11831;55.918;37.746;2022-08-30T08:01:18;98634.25;;;27.07;0.00
23318;BME280;11831;55.918;37.746;2022-08-30T08:03:44;98635.00;;;27.39;0.00
23318;BME280;11831;55.918;37.746;2022-08-30T08:06:12;98635.47;;;27.60;0.00
23318;BME280;11831;55.918;37.746;2022-08-30T08:08:39;98629.50;;;27.74;0.00
23318;BME280;11831;55.918;37.746;2022-08-30T08:11:09;98630.50;;;28.04;0.00
23318;BME280;11831;55.918;37.746;2022-08-30T08:13:37;98629.44;;;28.51;0.00
23318;BME280;11831;55.918;37.746;2022-08-30T08:16:04;98648.72;;;27.39;0.00
23318;BME280;11831;55.918;37.746;2022-08-30T08:18:30;98631.66;;;27.49;0.00
23318;BME280;11831;55.918;37.746;2022-08-30T08:20:57;98640.62;;;27.62;0.00
23318;BME280;11831;55.918;37.746;2022-08-30T08:23:23;98630.44;;;28.01;0.00
23318;BME280;11831;55.918;37.746;2022-08-30T08:25:50;98638.00;;;27.69;0.00
23318;BME280;11831;55.918;37.746;2022-08-30T08:28:16;98628.47;;;28.21;0.00
23318;BME280;11831;55.918;37.746;2022-08-30T08:30:42;98631.63;;;28.23;0.00
23318;BME280;11831;55.918;37.746;2022-08-30T08:33:09;98632.91;;;28.48;0.00
23318;BME280;11831;55.918;37.746;2022-08-30T08:35:37;98613.13;;;28.20;0.00
23318;BME280;11831;55.918;37.746;2022-08-30T08:38:04;98628.66;;;28.12;0.00
23318;BME280;11831;55.918;37.746;2022-08-30T08:40:35;98625.81;;;28.47;0.00
23318;BME280;11831;55.918;37.746;2022-08-30T08:43:10;98628.09;;;28.22;0.00
23318;BME280;11831;55.918;37.746;2022-08-30T08:48:34;98640.34;;;27.16;0.00
23318;BME280;11831;55.918;37.746;2022-08-30T08:51:06;98633.41;;;27.92;0.00
23318;BME280;11831;55.918;37.746;2022-08-30T08:53:54;98631.13;;;28.36;0.00
23318;BME280;11831;55.918;37.746;2022-08-30T08:56:22;98630.97;;;28.49;0.00
23318;BME280;11831;55.918;37.746;2022-08-30T08:58:50;98640.38;;;28.93;0.00
23318;BME280;11831;55.918;37.746;2022-08-30T09:01:17;98639.19;;;28.49;0.00
23318;BME280;11831;55.918;37.746;2022-08-30T09:03:44;98629.22;;;28.40;0.00
23318;BME280;11831;55.918;37.746;2022-08-30T09:08:55;98638.34;;;28.90;0.00
23318;BME280;11831;55.918;37.746;2022-08-30T09:11:23;98653.44;;;28.54;0.00
23318;BME280;11831;55.918;37.746;2022-08-30T09:13:50;98643.28;;;28.35;0.00
23318;BME280;11831;55.918;37.746;2022-08-30T09:17:01;98649.72;;;28.24;0.00
23318;BME280;11831;55.918;37.746;2022-08-30T09:19:06;98646.66;;;28.48;0.00
23318;BME280;11831;55.918;37.746;2022-08-30T09:21:32;98660.56;;;28.36;0.00
23318;BME280;11831;55.918;37.746;2022-08-30T09:24:00;98642.13;;;29.05;0.00
23318;BME280;11831;55.918;37.746;2022-08-30T09:26:30;98636.84;;;28.73;0.00
23318;BME280;11831;55.918;37.746;2022-08-30T09:28:57;98639.34;;;29.05;0.00
23318;BME280;11831;55.918;37.746;2022-08-30T09:31:26;98645.16;;;29.49;0.00
23318;BME280;11831;55.918;37.746;2022-08-30T09:36:37;98658.25;;;28.61;0.00
23318;BME280;11831;55.918;37.746;2022-08-30T09:39:05;98656.75;;;29.09;0.00
23318;BME280;11831;55.918;37.746;2022-08-30T09:41:40;98635.78;;;29.27;0.00
23318;BME280;11831;55.918;37.746;2022-08-30T09:44:20;98635.66;;;29.73;0.00
23318;BME280;11831;55.918;37.746;2022-08-30T09:51:52;98657.72;;;29.47;0.00
23318;BME280;11831;55.918;37.746;2022-08-30T09:54:24;98676.97;;;29.20;0.00
23318;BME280;11831;55.918;37.746;2022-08-30T09:59:55;98653.78;;;29.48;0.00
23318;BME280;11831;55.918;37.746;2022-08-30T10:02:40;98647.72;;;29.65;0.00
23318;BME280;11831;55.918;37.746;2022-08-30T10:10:09;98660.84;;;29.45;0.00
23318;BME280;11831;55.918;37.746;2022-08-30T10:12:41;98639.19;;;30.04;0.00
23318;BME280;11831;55.918;37.746;2022-08-30T10:17:58;98662.06;;;29.25;0.00
23318;BME280;11831;55.918;37.746;2022-08-30T10:20:30;98661.13;;;29.40;0.00
23318;BME280;11831;55.918;37.746;2022-08-30T10:25:35;98640.09;;;30.15;0.00
23318;BME280;11831;55.918;37.746;2022-08-30T10:28:06;98650.97;;;30.38;0.00
23318;BME280;11831;55.918;37.746;2022-08-30T10:30:35;98644.09;;;30.21;0.00
23318;BME280;11831;55.918;37.746;2022-08-30T10:33:07;98643.34;;;30.27;0.00
23318;BME280;11831;55.918;37.746;2022-08-30T10:35:37;98652.69;;;30.53;0.00
23318;BME280;11831;55.918;37.746;2022-08-30T10:38:07;98656.31;;;29.60;0.00
23318;BME280;11831;55.918;37.746;2022-08-30T10:40:36;98650.31;;;30.14;0.00
23318;BME280;11831;55.918;37.746;2022-08-30T10:43:29;98643.97;;;30.47;0.00
23318;BME280;11831;55.918;37.746;2022-08-30T10:46:02;98648.97;;;30.72;0.00
23318;BME280;11831;55.918;37.746;2022-08-30T10:48:37;98651.28;;;30.66;0.00
23318;BME280;11831;55.918;37.746;2022-08-30T10:51:11;98653.88;;;30.96;0.00
23318;BME280;11831;55.918;37.746;2022-08-30T10:53:41;98647.09;;;30.86;0.00
23318;BME280;11831;55.918;37.746;2022-08-30T10:56:10;98645.69;;;31.07;0.00
23318;BME280;11831;55.918;37.746;2022-08-30T10:58:37;98653.44;;;31.45;0.00
23318;BME280;11831;55.918;37.746;2022-08-30T11:01:08;98642.72;;;31.30;0.00
23318;BME280;11831;55.918;37.746;2022-08-30T11:03:56;98637.06;;;31.77;0.00
23318;BME280;11831;55.918;37.746;2022-08-30T11:14:21;98641.28;;;33.01;0.00
23318;BME280;11831;55.918;37.746;2022-08-30T11:16:48;98622.31;;;34.22;0.00
23318;BME280;11831;55.918;37.746;2022-08-30T11:19:23;98634.09;;;35.00;0.00
23318;BME280;11831;55.918;37.746;2022-08-30T11:21:51;98641.31;;;34.90;0.00
23318;BME280;11831;55.918;37.746;2022-08-30T11:24:21;98621.91;;;34.86;0.00
23318;BME280;11831;55.918;37.746;2022-08-30T11:31:53;98621.25;;;34.68;0.00
23318;BME280;11831;55.918;37.746;2022-08-30T11:37:06;98626.22;;;33.30;0.00
23318;BME280;11831;55.918;37.746;2022-08-30T11:39:43;98631.41;;;33.11;0.00
23318;BME280;11831;55.918;37.746;2022-08-30T11:42:55;98625.47;;;33.16;0.00
23318;BME280;11831;55.918;37.746;2022-08-30T11:47:59;98647.81;;;31.93;0.00
23318;BME280;11831;55.918;37.746;2022-08-30T11:55:25;98621.53;;;32.95;0.00
23318;BME280;11831;55.918;37.746;2022-08-30T11:57:58;98620.28;;;35.68;0.00
23318;BME280;11831;55.918;37.746;2022-08-30T12:00:32;98619.06;;;34.94;0.00
23318;BME280;11831;55.918;37.746;2022-08-30T12:05:44;98610.28;;;34.47;0.00
23318;BME280;11831;55.918;37.746;2022-08-30T12:16:06;98598.22;;;32.79;0.00
23318;BME280;11831;55.918;37.746;2022-08-30T12:21:11;98595.16;;;31.68;0.00
23318;BME280;11831;55.918;37.746;2022-08-30T12:23:45;98604.22;;;31.65;0.00
23318;BME280;11831;55.918;37.746;2022-08-30T12:28:39;98599.50;;;31.62;0.00
23318;BME280;11831;55.918;37.746;2022-08-30T12:31:09;98604.25;;;31.00;0.00
23318;BME280;11831;55.918;37.746;2022-08-30T12:33:43;98603.56;;;31.17;0.00
23318;BME280;11831;55.918;37.746;2022-08-30T12:36:14;98608.66;;;31.15;0.00
23318;BME280;11831;55.918;37.746;2022-08-30T12:38:40;98597.03;;;31.46;0.00
23318;BME280;11831;55.918;37.746;2022-08-30T12:41:07;98600.00;;;31.86;0.00
23318;BME280;11831;55.918;37.746;2022-08-30T12:43:38;98605.50;;;31.78;0.00
23318;BME280;11831;55.918;37.746;2022-08-30T12:46:05;98605.81;;;31.63;0.00
23318;BME280;11831;55.918;37.746;2022-08-30T12:48:34;98605.09;;;31.14;0.00
23318;BME280;11831;55.918;37.746;2022-08-30T12:51:02;98614.37;;;30.41;0.00
23318;BME280;11831;55.918;37.746;2022-08-30T13:06:48;98603.22;;;32.09;0.00
23318;BME280;11831;55.918;37.746;2022-08-30T13:09:22;98607.28;;;32.47;0.00
23318;BME280;11831;55.918;37.746;2022-08-30T13:11:49;98606.25;;;33.89;0.00
23318;BME280;11831;55.918;37.746;2022-08-30T13:14:20;98608.19;;;35.10;0.00
23318;BME280;11831;55.918;37.746;2022-08-30T13:17:04;98617.25;;;36.20;0.00
23318;BME280;11831;55.918;37.746;2022-08-30T13:19:35;98598.53;;;38.52;0.00
23318;BME280;11831;55.918;37.746;2022-08-30T13:22:02;98602.31;;;39.82;0.00
23318;BME280;11831;55.918;37.746;2022-08-30T13:24:29;98591.75;;;40.15;0.00
23318;BME280;11831;55.918;37.746;2022-08-30T13:27:01;98597.09;;;40.73;0.00
23318;BME280;11831;55.918;37.746;2022-08-30T13:29:28;98588.19;;;41.34;0.00
23318;BME280;11831;55.918;37.746;2022-08-30T13:31:54;98587.50;;;41.30;0.00
23318;BME280;11831;55.918;37.746;2022-08-30T13:34:21;98588.59;;;41.67;0.00
23318;BME280;11831;55.918;37.746;2022-08-30T13:36:49;98587.56;;;41.83;0.00
23318;BME280;11831;55.918;37.746;2022-08-30T13:39:16;98587.34;;;41.46;0.00
23318;BME280;11831;55.918;37.746;2022-08-30T13:41:42;98575.19;;;43.56;40.71
23318;BME280;11831;55.918;37.746;2022-08-30T13:44:08;98572.50;;;43.80;38.02
23318;BME280;11831;55.918;37.746;2022-08-30T13:46:35;98568.00;;;44.39;36.21
23318;BME280;11831;55.918;37.746;2022-08-30T13:49:04;98568.72;;;45.06;34.27
23318;BME280;11831;55.918;37.746;2022-08-30T13:51:31;98568.00;;;45.49;33.12
23318;BME280;11831;55.918;37.746;2022-08-30T13:53:57;98568.56;;;44.85;32.03
23318;BME280;11831;55.918;37.746;2022-08-30T13:56:29;98562.31;;;44.57;31.73
23318;BME280;11831;55.918;37.746;2022-08-30T13:58:57;98554.91;;;45.23;31.24
23318;BME280;11831;55.918;37.746;2022-08-30T14:01:24;98565.38;;;45.31;31.80
23318;BME280;11831;55.918;37.746;2022-08-30T14:03:50;98556.56;;;45.14;31.53
23318;BME280;11831;55.918;37.746;2022-08-30T14:06:17;98559.69;;;43.70;32.42
23318;BME280;11831;55.918;37.746;2022-08-30T14:08:43;98553.63;;;44.46;32.04
23318;BME280;11831;55.918;37.746;2022-08-30T14:11:09;98552.41;;;44.29;32.28
23318;BME280;11831;55.918;37.746;2022-08-30T14:13:37;98557.19;;;43.62;32.64
23318;BME280;11831;55.918;37.746;2022-08-30T14:16:04;98555.69;;;42.39;34.44
23318;BME280;11831;55.918;37.746;2022-08-30T14:18:31;98541.12;;;42.13;35.26
23318;BME280;11831;55.918;37.746;2022-08-30T14:20:57;98540.31;;;42.53;35.63
23318;BME280;11831;55.918;37.746;2022-08-30T14:23:24;98545.22;;;42.30;36.01
23318;BME280;11831;55.918;37.746;2022-08-30T14:25:51;98531.81;;;42.25;36.40
23318;BME280;11831;55.918;37.746;2022-08-30T14:28:17;98524.41;;;42.59;35.68